Time;durP1;ratioP1;P1;durP2;ratioP2;P2;SDS_P1;SDS_P2;PMS_P1;PMS_P2;Temp;Humidity;BMP_temperature;BMP_pressure;BME280_temperature;BME280_humidity;BME280_pressure;Samples;Min_cycle;Max_cycle;Signal;HPM_P1;HPM_P2
2022/12/15 00:40:58;;;;;;;52.72;24.60;;;-3.80;99.90;;;;;;5055565;28;20044;-80
2022/12/15 00:43:28;;;;;;;48.83;24.23;;;-3.80;99.90;;;;;;5056248;28;20052;-80
2022/12/15 00:48:39;;;;;;;65.07;28.35;;;-3.70;99.90;;;;;;5056358;28;20493;-78
2022/12/15 00:51:05;;;;;;;65.00;29.60;;;-3.70;99.90;;;;;;5038225;28;20044;-75
2022/12/15 01:20:58;;;;;;;73.72;33.53;;;-3.60;99.90;;;;;;5055562;28;20521;-75
2022/12/15 01:23:24;;;;;;;71.50;30.95;;;-3.60;99.90;;;;;;5055714;28;20020;-75
2022/12/15 01:25:51;;;;;;;66.93;30.15;;;-3.60;99.90;;;;;;5037711;28;20394;-80
2022/12/15 01:28:18;;;;;;;63.47;30.00;;;-3.60;99.90;;;;;;5037558;28;20025;-80
2022/12/15 01:30:44;;;;;;;65.78;30.77;;;-3.70;99.90;;;;;;5055498;28;20050;-80
2022/12/15 01:33:09;;;;;;;67.10;32.33;;;-3.60;99.90;;;;;;5055237;28;20033;-78
2022/12/15 01:35:35;;;;;;;75.10;33.03;;;-3.60;99.90;;;;;;5055285;28;20497;-80
2022/12/15 01:38:00;;;;;;;63.30;30.10;;;-3.60;99.90;;;;;;5055035;28;20021;-76
2022/12/15 01:40:44;;;;;;;62.72;30.75;;;-3.60;99.90;;;;;;5037471;28;20088;-76
2022/12/15 01:43:16;;;;;;;69.43;32.53;;;-3.60;99.90;;;;;;5055167;28;20057;-77
2022/12/15 01:45:55;;;;;;;69.80;31.17;;;-3.60;99.90;;;;;;5037268;28;20548;-81
2022/12/15 01:48:56;;;;;;;75.30;34.58;;;-3.60;99.90;;;;;;5055039;28;20051;-80
2022/12/15 01:51:31;;;;;;;68.65;30.63;;;-3.60;99.90;;;;;;5051939;28;20029;-80
2022/12/15 01:54:12;;;;;;;63.22;29.65;;;-3.60;99.90;;;;;;5054897;28;20033;-80
2022/12/15 01:56:43;;;;;;;63.40;31.65;;;-3.60;99.90;;;;;;5036930;28;20117;-80
2022/12/15 01:59:15;;;;;;;69.28;34.80;;;-3.60;99.90;;;;;;5036907;28;20040;-76
2022/12/15 02:01:41;;;;;;;65.10;29.50;;;-3.60;99.90;;;;;;5054741;28;20536;-76
2022/12/15 02:04:07;;;;;;;65.25;30.20;;;-3.60;99.90;;;;;;5039069;28;20025;-81
2022/12/15 02:06:34;;;;;;;73.50;30.30;;;-3.60;99.90;;;;;;5066574;28;20021;-76
2022/12/15 02:09:01;;;;;;;64.35;30.13;;;-3.60;99.90;;;;;;5074465;28;20055;-76
2022/12/15 02:11:35;;;;;;;63.50;30.10;;;-3.60;99.90;;;;;;5074662;28;20521;-81
2022/12/15 02:14:09;;;;;;;65.47;31.70;;;-3.60;99.90;;;;;;5056425;28;20044;-75
2022/12/15 02:17:16;;;;;;;77.72;31.65;;;-3.60;99.90;;;;;;5056760;28;20056;-81
2022/12/15 02:20:00;;;;;;;64.07;29.30;;;-3.60;99.90;;;;;;5061450;28;20505;-81
2022/12/15 02:22:55;;;;;;;56.67;28.27;;;-3.60;99.90;;;;;;5056500;28;20036;-75
2022/12/15 02:25:48;;;;;;;68.00;28.05;;;-3.60;99.90;;;;;;5056556;28;20047;-80
2022/12/15 02:28:43;;;;;;;63.50;30.42;;;-3.60;99.90;;;;;;5074271;28;20056;-76
2022/12/15 02:34:13;;;;;;;59.05;27.23;;;-3.60;99.90;;;;;;5074007;28;20090;-76
2022/12/15 02:36:44;;;;;;;64.07;28.05;;;-3.60;99.90;;;;;;5074170;28;20013;-80
2022/12/15 02:39:13;;;;;;;56.47;28.52;;;-3.60;99.90;;;;;;5073874;28;20021;-76
2022/12/15 02:41:44;;;;;;;69.82;30.25;;;-3.50;99.90;;;;;;5054119;28;20045;-76
2022/12/15 02:44:35;;;;;;;57.53;28.58;;;-3.60;99.90;;;;;;5035996;28;20053;-81
2022/12/15 02:47:10;;;;;;;59.95;27.52;;;-3.50;99.90;;;;;;5054006;28;20025;-76
2022/12/15 02:52:56;;;;;;;52.42;26.63;;;-3.50;99.90;;;;;;5053729;28;20043;-81
2022/12/15 02:55:49;;;;;;;69.78;29.13;;;-3.50;99.90;;;;;;5053798;28;20426;-80
2022/12/15 02:58:33;;;;;;;;;;;-3.50;99.90;;;;;;5054397;28;20028;-76
2022/12/15 03:01:07;;;;;;;54.67;27.48;;;-3.50;99.90;;;;;;5035924;28;19904;-76
2022/12/15 03:03:34;;;;;;;64.60;31.88;;;-3.50;99.90;;;;;;5053816;28;20017;-81
2022/12/15 03:06:01;;;;;;;63.53;28.38;;;-3.40;99.90;;;;;;5061394;28;20044;-76
2022/12/15 03:08:27;;;;;;;62.25;29.02;;;-3.50;99.90;;;;;;5073565;28;20075;-80
2022/12/15 03:10:55;;;;;;;63.97;31.17;;;-3.50;99.90;;;;;;5073651;28;20394;-80
2022/12/15 03:13:21;;;;;;;75.63;33.85;;;-3.50;99.90;;;;;;5073363;28;20058;-81
2022/12/15 03:15:47;;;;;;;66.15;31.33;;;-3.50;99.90;;;;;;5055529;28;20025;-77
2022/12/15 03:18:12;;;;;;;67.15;30.60;;;-3.40;99.90;;;;;;5055461;28;20062;-80
2022/12/15 03:20:38;;;;;;;72.57;31.95;;;-3.40;99.90;;;;;;5073261;28;20448;-80
2022/12/15 03:23:04;;;;;;;74.72;33.95;;;-3.40;99.90;;;;;;5055405;28;20020;-81
2022/12/15 03:25:29;;;;;;;76.15;34.35;;;-3.40;99.90;;;;;;5073403;28;20024;-81
2022/12/15 03:27:55;;;;;;;73.35;35.60;;;-3.40;99.90;;;;;;5073228;28;20050;-81
2022/12/15 03:30:21;;;;;;;79.47;33.75;;;-3.40;99.90;;;;;;5055333;28;20454;-81
2022/12/15 03:32:47;;;;;;;83.75;37.97;;;-3.40;99.90;;;;;;5055466;28;20119;-76
2022/12/15 03:35:12;;;;;;;79.40;35.67;;;-3.40;99.90;;;;;;5073092;28;20062;-76
2022/12/15 03:37:39;;;;;;;81.75;35.25;;;-3.40;99.90;;;;;;5055192;28;20017;-81
2022/12/15 03:40:06;;;;;;;81.10;36.80;;;-3.40;99.90;;;;;;5046499;28;20023;-76
2022/12/15 03:42:47;;;;;;;81.82;37.28;;;-3.40;99.90;;;;;;5052930;28;20116;-76
2022/12/15 03:45:17;;;;;;;76.90;36.60;;;-3.40;99.90;;;;;;5053051;28;20485;-81
2022/12/15 03:47:43;;;;;;;83.18;38.22;;;-3.40;99.90;;;;;;5035088;28;20028;-81
2022/12/15 03:50:10;;;;;;;85.68;40.83;;;-3.40;99.90;;;;;;5034959;28;20021;-81
2022/12/15 03:52:36;;;;;;;87.13;39.83;;;-3.40;99.90;;;;;;5053045;28;20104;-81
2022/12/15 03:55:03;;;;;;;86.72;39.72;;;-3.40;99.90;;;;;;5053020;28;20128;-81
2022/12/15 03:57:29;;;;;;;88.00;38.03;;;-3.40;99.90;;;;;;5063198;28;20500;-77
2022/12/15 03:59:55;;;;;;;90.72;38.90;;;-3.30;99.90;;;;;;5073057;28;20024;-76
2022/12/15 04:02:20;;;;;;;91.85;38.80;;;-3.30;99.90;;;;;;5073366;28;20047;-75
2022/12/15 04:04:47;;;;;;;89.18;39.67;;;-3.30;99.90;;;;;;5054942;28;20029;-76
2022/12/15 04:07:13;;;;;;;90.57;40.88;;;-3.30;99.90;;;;;;5055028;28;20502;-81
2022/12/15 04:09:38;;;;;;;90.55;41.70;;;-3.30;99.90;;;;;;5052744;28;20025;-75
2022/12/15 04:12:04;;;;;;;94.57;42.63;;;-3.30;99.90;;;;;;5052834;28;20021;-76
2022/12/15 04:14:45;;;;;;;94.32;42.35;;;-3.30;99.90;;;;;;5051401;28;20041;-76
2022/12/15 04:17:11;;;;;;;85.65;42.60;;;-3.30;99.90;;;;;;5051490;28;20032;-82
2022/12/15 04:22:22;;;;;;;102.18;47.55;;;-3.30;99.90;;;;;;5053273;28;20101;-81
2022/12/15 05:33:17;;;;;;;86.63;38.53;;;-3.50;99.90;;;;;;5055538;28;20046;-80
2022/12/15 05:35:42;;;;;;;78.35;39.50;;;-3.50;99.90;;;;;;5055282;28;20025;-80
2022/12/15 05:38:08;;;;;;;92.20;43.00;;;-3.50;99.90;;;;;;5055315;28;20035;-80
2022/12/15 05:40:33;;;;;;;81.80;38.85;;;-3.50;99.90;;;;;;5055094;28;20096;-76
2022/12/15 05:42:59;;;;;;;87.35;39.72;;;-3.50;99.90;;;;;;5054982;28;20091;-81
2022/12/15 05:45:26;;;;;;;75.20;37.92;;;-3.50;99.90;;;;;;5055089;28;20051;-76
2022/12/15 05:47:52;;;;;;;77.25;39.05;;;-3.60;99.90;;;;;;5055298;28;20083;-81
2022/12/15 05:50:18;;;;;;;80.30;39.13;;;-3.60;99.90;;;;;;5055016;28;20025;-77
2022/12/15 05:52:43;;;;;;;87.07;39.83;;;-3.60;99.90;;;;;;5054898;28;20071;-77
2022/12/15 05:55:09;;;;;;;87.15;43.00;;;-3.60;99.90;;;;;;5054808;28;20091;-81
2022/12/15 05:57:35;;;;;;;87.75;41.80;;;-3.60;99.90;;;;;;5054803;28;20031;-75
2022/12/15 06:00:00;;;;;;;96.80;42.95;;;-3.60;99.90;;;;;;5055025;28;20389;-81
2022/12/15 06:02:29;;;;;;;91.82;44.05;;;-3.60;99.90;;;;;;5054679;28;20031;-81
2022/12/15 06:04:54;;;;;;;90.05;42.47;;;-3.60;99.90;;;;;;5054619;28;20025;-80
2022/12/15 06:07:20;;;;;;;82.15;40.47;;;-3.70;99.90;;;;;;5074277;28;20028;-76
2022/12/15 06:09:46;;;;;;;87.57;39.78;;;-3.70;99.90;;;;;;5074823;28;20029;-76
2022/12/15 06:12:11;;;;;;;94.40;43.45;;;-3.70;99.90;;;;;;5074474;28;20055;-81
2022/12/15 06:14:37;;;;;;;82.65;42.03;;;-3.70;99.90;;;;;;5056544;28;20033;-80
2022/12/15 06:17:02;;;;;;;81.95;39.15;;;-3.60;99.90;;;;;;5074327;28;20028;-75
2022/12/15 06:19:28;;;;;;;169.45;75.63;;;-3.70;99.90;;;;;;5074596;28;20024;-80
2022/12/15 06:21:54;;;;;;;108.45;48.53;;;-3.70;99.90;;;;;;5074357;28;20016;-76
2022/12/15 06:24:19;;;;;;;75.68;36.40;;;-3.80;99.90;;;;;;5074371;28;20013;-81
2022/12/15 06:26:46;;;;;;;161.52;68.75;;;-3.80;99.90;;;;;;5074343;28;20029;-76
2022/12/15 06:29:12;;;;;;;128.52;55.75;;;-3.80;99.90;;;;;;5056040;28;20556;-76
2022/12/15 06:31:39;;;;;;;209.10;79.78;;;-3.80;99.90;;;;;;5074156;28;20393;-76
2022/12/15 06:34:07;;;;;;;149.85;58.60;;;-3.90;99.90;;;;;;5073522;28;20059;-76
2022/12/15 06:36:33;;;;;;;278.48;96.47;;;-3.90;99.90;;;;;;5056258;28;20017;-80
2022/12/15 06:39:03;;;;;;;112.25;42.33;;;-3.90;99.90;;;;;;5056121;28;20107;-80
2022/12/15 06:41:29;;;;;;;90.05;39.08;;;-3.90;99.90;;;;;;5053999;28;20103;-80
2022/12/15 06:43:55;;;;;;;97.43;39.05;;;-3.90;99.90;;;;;;5053786;28;20044;-75
2022/12/15 06:46:21;;;;;;;76.53;34.70;;;-3.90;99.90;;;;;;5053983;28;20036;-81
2022/12/15 06:48:48;;;;;;;72.47;33.25;;;-4.00;99.90;;;;;;5053945;28;20043;-76
2022/12/15 06:51:14;;;;;;;76.50;36.88;;;-3.90;99.90;;;;;;5036036;28;20024;-76
2022/12/15 06:53:41;;;;;;;66.95;32.28;;;-3.90;99.90;;;;;;5053827;28;20239;-81
2022/12/15 06:56:13;;;;;;;69.22;32.58;;;-3.90;99.90;;;;;;5035938;28;20033;-80
2022/12/15 06:58:39;;;;;;;105.72;43.17;;;-3.90;99.90;;;;;;5053756;28;20100;-81
2022/12/15 07:01:06;;;;;;;81.88;36.10;;;-3.90;99.90;;;;;;5035736;28;20020;-81
2022/12/15 07:03:33;;;;;;;72.78;35.00;;;-3.90;99.90;;;;;;5053638;28;20394;-81
2022/12/15 07:06:05;;;;;;;82.95;36.45;;;-3.90;99.90;;;;;;5062214;28;20058;-81
2022/12/15 07:08:31;;;;;;;89.68;42.50;;;-3.90;99.90;;;;;;5068698;28;20021;-75
2022/12/15 07:10:57;;;;;;;86.90;38.90;;;-3.80;99.90;;;;;;5035551;28;20117;-76
2022/12/15 07:13:23;;;;;;;181.90;76.35;;;-3.80;99.90;;;;;;5068914;28;20037;-77
2022/12/15 07:15:49;;;;;;;77.57;34.35;;;-3.80;99.90;;;;;;5048750;28;20393;-76
2022/12/15 07:18:16;;;;;;;77.28;35.90;;;-3.80;99.90;;;;;;5053380;28;20032;-76
2022/12/15 07:20:42;;;;;;;87.47;36.38;;;-3.80;99.90;;;;;;5044448;28;20048;-77
2022/12/15 07:23:08;;;;;;;99.20;42.20;;;-3.90;99.90;;;;;;5060412;28;20020;-76
2022/12/15 07:25:38;;;;;;;104.95;45.97;;;-3.90;99.90;;;;;;5044313;28;20118;-76
2022/12/15 07:28:05;;;;;;;100.70;39.50;;;-3.80;99.90;;;;;;5042244;28;20457;-77
2022/12/15 07:30:32;;;;;;;77.25;33.97;;;-3.90;99.90;;;;;;5044828;28;20028;-78
2022/12/15 07:32:58;;;;;;;78.82;36.95;;;-3.90;99.90;;;;;;5039724;28;20051;-81
2022/12/15 07:35:23;;;;;;;83.75;40.33;;;-3.90;99.90;;;;;;5035410;28;20029;-81
2022/12/15 07:37:49;;;;;;;108.43;44.25;;;-3.90;99.90;;;;;;5053049;28;20052;-80
2022/12/15 07:40:15;;;;;;;101.53;43.55;;;-3.80;99.90;;;;;;5052843;28;20522;-79
2022/12/15 07:42:41;;;;;;;94.45;39.40;;;-3.80;99.90;;;;;;5052738;28;20136;-80
2022/12/15 07:45:07;;;;;;;89.45;39.70;;;-3.70;99.90;;;;;;5053328;28;20174;-80
2022/12/15 07:47:34;;;;;;;105.93;47.22;;;-3.60;99.90;;;;;;5061822;28;20045;-75
2022/12/15 07:50:00;;;;;;;91.60;39.03;;;-3.60;99.90;;;;;;5061406;28;20528;-81
2022/12/15 07:52:26;;;;;;;133.00;53.72;;;-3.60;99.90;;;;;;5043720;28;20520;-81
2022/12/15 07:54:52;;;;;;;114.25;48.70;;;-3.60;99.90;;;;;;5044464;28;20111;-80
2022/12/15 07:57:17;;;;;;;106.35;46.97;;;-3.50;99.90;;;;;;5057180;28;20067;-81
2022/12/15 07:59:43;;;;;;;145.52;60.92;;;-3.40;99.90;;;;;;5061613;28;20043;-81
2022/12/15 08:02:10;;;;;;;99.70;39.33;;;-3.30;99.90;;;;;;5061891;28;20108;-81
2022/12/15 08:04:36;;;;;;;77.18;38.45;;;-3.40;99.90;;;;;;5059905;28;20418;-82
2022/12/15 08:07:02;;;;;;;121.20;48.85;;;-3.40;99.90;;;;;;5064388;28;20029;-81
2022/12/15 08:09:28;;;;;;;81.85;36.97;;;-3.40;99.90;;;;;;5060452;28;20489;-81
2022/12/15 08:11:53;;;;;;;89.25;41.83;;;-3.40;99.90;;;;;;5061954;28;20047;-81
2022/12/15 08:14:19;;;;;;;73.20;36.42;;;-3.30;99.90;;;;;;5059947;28;20036;-81
2022/12/15 08:16:45;;;;;;;68.45;33.65;;;-3.40;99.90;;;;;;5059013;28;20025;-77
2022/12/15 08:19:14;;;;;;;117.50;50.45;;;-3.30;99.90;;;;;;5054949;28;20474;-82
2022/12/15 08:21:40;;;;;;;88.72;40.28;;;-3.30;99.90;;;;;;5043308;28;20012;-81
2022/12/15 08:24:07;;;;;;;118.45;51.10;;;-3.30;99.90;;;;;;5061738;28;20024;-82
2022/12/15 08:26:33;;;;;;;136.63;56.63;;;-3.30;99.90;;;;;;5046362;28;20028;-75
2022/12/15 08:29:04;;;;;;;142.18;60.15;;;-3.20;99.90;;;;;;5051786;28;20424;-76
2022/12/15 08:31:32;;;;;;;209.43;86.50;;;-3.20;99.90;;;;;;5064748;28;20371;-81
2022/12/15 08:33:58;;;;;;;151.23;62.55;;;-3.20;99.90;;;;;;5061032;28;20040;-81
2022/12/15 08:36:24;;;;;;;92.90;42.50;;;-3.20;99.90;;;;;;5038664;28;20032;-81
2022/12/15 08:38:50;;;;;;;197.40;80.43;;;-3.30;99.90;;;;;;5063438;28;20021;-81
2022/12/15 08:41:25;;;;;;;162.43;69.10;;;-3.20;99.90;;;;;;5063482;28;20032;-80
2022/12/15 08:43:52;;;;;;;156.85;66.95;;;-3.20;99.90;;;;;;5061598;28;20048;-81
2022/12/15 08:46:21;;;;;;;139.75;58.17;;;-3.10;99.90;;;;;;5046474;28;20398;-80
2022/12/15 08:48:47;;;;;;;173.63;67.38;;;-3.00;99.90;;;;;;5047623;28;20428;-81
2022/12/15 08:51:13;;;;;;;117.25;46.28;;;-2.90;99.90;;;;;;5062896;28;20013;-81
2022/12/15 08:53:38;;;;;;;157.60;63.72;;;-2.90;99.90;;;;;;5055826;28;20470;-77
2022/12/15 08:56:07;;;;;;;145.23;59.15;;;-2.80;99.90;;;;;;5038018;28;20017;-81
2022/12/15 08:58:33;;;;;;;178.57;73.90;;;-2.70;99.90;;;;;;5055889;28;20045;-81
2022/12/15 09:01:04;;;;;;;139.23;55.00;;;-2.70;99.90;;;;;;5055638;28;20494;-77
2022/12/15 09:03:31;;;;;;;117.03;51.13;;;-2.60;99.90;;;;;;5053485;28;20043;-79
2022/12/15 09:06:03;;;;;;;173.82;70.30;;;-2.60;99.90;;;;;;5061800;28;20074;-78
2022/12/15 09:08:29;;;;;;;151.75;62.97;;;-2.50;99.90;;;;;;5072715;28;20423;-82
2022/12/15 09:10:59;;;;;;;112.85;46.30;;;-2.50;99.90;;;;;;5055884;28;20052;-78
2022/12/15 09:13:26;;;;;;;103.60;45.47;;;-2.50;99.90;;;;;;5073417;28;20044;-77
2022/12/15 09:16:04;;;;;;;114.88;45.13;;;-2.40;99.90;;;;;;5072601;28;20056;-77
2022/12/15 09:18:30;;;;;;;111.90;47.15;;;-2.40;99.90;;;;;;5071631;28;20031;-82
2022/12/15 09:21:02;;;;;;;89.30;42.83;;;-2.40;99.90;;;;;;5055419;28;20021;-83
2022/12/15 09:23:28;;;;;;;76.75;37.28;;;-2.40;99.90;;;;;;5073509;28;20534;-78
2022/12/15 09:26:05;;;;;;;62.13;29.63;;;-2.40;99.90;;;;;;5055507;28;20024;-77
2022/12/15 09:28:33;;;;;;;66.30;32.97;;;-2.40;99.90;;;;;;5072025;28;20123;-78
2022/12/15 09:31:02;;;;;;;91.00;38.88;;;-2.40;99.90;;;;;;5054401;28;20025;-82
2022/12/15 09:33:28;;;;;;;88.45;38.40;;;-2.40;99.90;;;;;;5055159;28;20033;-80
2022/12/15 09:35:54;;;;;;;62.85;29.45;;;-2.30;99.90;;;;;;5037599;28;20017;-80
2022/12/15 09:38:19;;;;;;;71.57;30.45;;;-2.20;99.90;;;;;;5054574;28;20032;-80
2022/12/15 09:40:45;;;;;;;90.45;36.53;;;-2.20;99.90;;;;;;5055085;28;20044;-76
2022/12/15 09:43:17;;;;;;;77.07;34.85;;;-2.20;99.90;;;;;;5037059;28;20052;-82
2022/12/15 09:45:49;;;;;;;88.45;35.05;;;-2.20;99.90;;;;;;5055149;28;20021;-77
2022/12/15 09:48:33;;;;;;;64.93;30.40;;;-2.10;99.90;;;;;;5055414;28;20075;-77
2022/12/15 09:51:00;;;;;;;66.82;31.10;;;-2.10;99.90;;;;;;5055307;28;20021;-81
2022/12/15 09:53:26;;;;;;;82.00;37.28;;;-2.10;99.90;;;;;;5054868;28;20051;-77
2022/12/15 09:56:18;;;;;;;68.57;30.27;;;-2.10;99.90;;;;;;5037199;28;20389;-78
2022/12/15 09:58:52;;;;;;;64.32;30.55;;;-2.10;99.90;;;;;;5043141;28;20036;-79
2022/12/15 10:01:33;;;;;;;72.93;34.63;;;-2.10;99.90;;;;;;5036943;28;20036;-82
2022/12/15 10:04:19;;;;;;;86.47;36.05;;;-2.20;99.90;;;;;;5030553;28;20062;-79
2022/12/15 10:06:55;;;;;;;83.88;35.85;;;-2.10;99.90;;;;;;5051505;28;20431;-76
2022/12/15 10:09:28;;;;;;;99.65;38.78;;;-2.10;99.90;;;;;;5033470;28;20128;-78
2022/12/15 10:12:10;;;;;;;80.70;35.22;;;-1.90;99.90;;;;;;5035506;28;20082;-78
2022/12/15 10:14:44;;;;;;;73.85;31.58;;;-2.00;99.90;;;;;;5032270;28;20041;-80
2022/12/15 10:17:51;;;;;;;67.07;30.77;;;-1.90;99.90;;;;;;5047233;28;20071;-78
2022/12/15 10:20:23;;;;;;;76.00;31.45;;;-1.90;99.90;;;;;;4955669;28;20581;-79
2022/12/15 10:22:50;;;;;;;71.22;31.60;;;-1.80;99.90;;;;;;5027318;28;20037;-77
2022/12/15 10:25:28;;;;;;;61.85;30.42;;;-1.90;99.90;;;;;;5053268;28;20025;-81
2022/12/15 10:28:15;;;;;;;69.05;32.33;;;-1.80;99.90;;;;;;5038141;28;20027;-80
2022/12/15 10:31:36;;;;;;;68.72;31.45;;;-1.90;99.90;;;;;;5038546;28;20032;-82
2022/12/15 10:34:23;;;;;;;91.10;37.25;;;-1.90;99.90;;;;;;4994209;28;20077;-80
2022/12/15 10:36:50;;;;;;;62.63;30.50;;;-1.70;99.90;;;;;;5063364;28;20500;-81
2022/12/15 10:39:16;;;;;;;69.50;32.33;;;-1.60;99.90;;;;;;5056787;28;20397;-80
2022/12/15 10:41:42;;;;;;;88.65;39.97;;;-1.70;99.90;;;;;;5040004;28;20120;-82
2022/12/15 10:44:24;;;;;;;68.88;35.70;;;-1.70;99.90;;;;;;5054977;28;20545;-81
2022/12/15 10:47:10;;;;;;;73.90;34.85;;;-1.70;99.90;;;;;;5053807;28;20401;-80
2022/12/15 10:49:35;;;;;;;74.55;41.40;;;-1.70;99.90;;;;;;5044432;28;20024;-81
2022/12/15 10:52:01;;;;;;;85.57;38.30;;;-1.80;99.90;;;;;;5051625;28;20029;-81
2022/12/15 10:54:35;;;;;;;74.45;31.75;;;-1.70;99.90;;;;;;5033515;28;20159;-81
2022/12/15 10:57:22;;;;;;;70.15;34.08;;;-1.70;99.90;;;;;;5049775;28;20025;-81
2022/12/15 10:59:48;;;;;;;60.38;28.80;;;-1.60;99.90;;;;;;5032546;28;20067;-81
2022/12/15 11:02:32;;;;;;;55.50;28.48;;;-1.70;99.90;;;;;;5033074;28;20025;-80
2022/12/15 11:05:15;;;;;;;80.53;35.65;;;-1.50;99.90;;;;;;5063236;28;20082;-81
2022/12/15 11:08:06;;;;;;;83.03;36.22;;;-1.50;99.90;;;;;;5042261;28;20020;-81
2022/12/15 11:13:25;;;;;;;64.40;30.98;;;-1.20;99.90;;;;;;5073915;28;20035;-81
2022/12/15 11:15:52;;;;;;;60.85;27.65;;;-1.20;99.90;;;;;;5045895;28;20462;-81
2022/12/15 11:18:57;;;;;;;69.07;32.22;;;-1.20;99.90;;;;;;5055744;28;20111;-81
2022/12/15 11:24:52;;;;;;;59.67;30.58;;;-1.10;99.90;;;;;;4958866;28;20042;-80
2022/12/15 11:27:21;;;;;;;;;;;-1.10;99.90;;;;;;4937861;29;20028;-81
2022/12/15 11:30:09;;;;;;;59.13;25.67;;;-1.00;99.90;;;;;;4998678;28;19908;-80
2022/12/15 11:32:37;;;;;;;60.50;25.90;;;-0.90;99.90;;;;;;5035417;28;20036;-81
2022/12/15 11:35:05;;;;;;;78.97;33.13;;;-0.90;99.90;;;;;;5053251;28;20028;-81
2022/12/15 11:37:40;;;;;;;68.63;30.63;;;-0.90;99.90;;;;;;5035444;28;20486;-81
2022/12/15 11:40:42;;;;;;;63.78;30.02;;;-0.90;99.90;;;;;;5034996;28;20048;-80
2022/12/15 11:43:13;;;;;;;60.60;27.75;;;-0.80;99.90;;;;;;4972368;28;20047;-81
2022/12/15 11:45:44;;;;;;;61.03;29.38;;;-0.80;99.90;;;;;;5040109;28;20041;-81
2022/12/15 11:48:20;;;;;;;56.70;28.15;;;-0.80;99.90;;;;;;5035487;28;20033;-81
2022/12/15 11:51:16;;;;;;;57.95;25.50;;;-0.80;99.90;;;;;;5053379;28;20036;-81
2022/12/15 11:53:50;;;;;;;60.13;27.67;;;-0.90;99.90;;;;;;5046979;28;20048;-80
2022/12/15 11:56:49;;;;;;;60.50;31.38;;;-0.90;99.90;;;;;;5052205;28;20032;-81
2022/12/15 11:59:18;;;;;;;61.85;27.48;;;-0.80;99.90;;;;;;5048853;28;20025;-80
2022/12/15 12:02:02;;;;;;;59.63;29.58;;;-0.80;99.90;;;;;;5028074;28;20056;-82
2022/12/15 12:04:38;;;;;;;70.57;28.88;;;-0.90;99.90;;;;;;5046532;28;20025;-83
2022/12/15 12:07:23;;;;;;;65.50;30.88;;;-0.80;99.90;;;;;;5055797;28;20040;-83
2022/12/15 12:10:15;;;;;;;66.15;30.08;;;-0.80;99.90;;;;;;5044921;28;20021;-83
2022/12/15 12:12:52;;;;;;;74.20;31.95;;;-0.70;99.90;;;;;;5064266;28;20443;-83
2022/12/15 12:15:39;;;;;;;66.80;29.35;;;-0.70;99.90;;;;;;5060247;28;20033;-83
2022/12/15 12:18:18;;;;;;;64.15;29.08;;;-0.70;99.90;;;;;;5056824;28;20028;-84
2022/12/15 12:21:07;;;;;;;54.53;26.45;;;-0.70;99.90;;;;;;5038392;28;20027;-83
2022/12/15 12:24:01;;;;;;;48.90;23.27;;;-0.80;99.90;;;;;;5038697;28;20032;-83
2022/12/15 12:26:42;;;;;;;47.22;23.88;;;-1.10;99.90;;;;;;5035756;28;20033;-83
2022/12/15 12:29:33;;;;;;;61.13;31.17;;;-1.20;99.90;;;;;;5038679;28;20029;-85
2022/12/15 12:32:05;;;;;;;61.63;29.67;;;-1.20;99.90;;;;;;5038289;28;20021;-82
2022/12/15 12:34:44;;;;;;;65.40;31.20;;;-1.30;99.90;;;;;;5055865;28;20477;-83
2022/12/15 12:37:21;;;;;;;61.33;32.85;;;-1.30;99.90;;;;;;5038231;28;20052;-84
2022/12/15 12:39:50;;;;;;;53.47;24.17;;;-1.30;99.90;;;;;;5038594;28;20348;-83
2022/12/15 12:42:28;;;;;;;52.03;24.65;;;-1.50;99.90;;;;;;5038097;28;20087;-86
2022/12/15 12:44:54;;;;;;;62.53;28.05;;;-1.40;99.90;;;;;;5038311;28;20039;-84
2022/12/15 12:47:24;;;;;;;59.65;27.65;;;-1.40;99.90;;;;;;5041487;28;20037;-85
2022/12/15 12:49:58;;;;;;;56.05;25.98;;;-1.30;99.90;;;;;;5055844;28;20079;-83
2022/12/15 12:52:34;;;;;;;60.85;26.40;;;-1.40;99.90;;;;;;5056024;28;20025;-83
2022/12/15 12:55:11;;;;;;;59.80;27.73;;;-1.50;99.90;;;;;;5038157;28;20060;-85
2022/12/15 12:57:41;;;;;;;52.80;27.60;;;-1.40;99.90;;;;;;5056128;28;20025;-83
2022/12/15 13:00:07;;;;;;;61.63;28.77;;;-1.40;99.90;;;;;;5035567;28;20123;-81
2022/12/15 13:02:34;;;;;;;65.63;28.80;;;-1.50;99.90;;;;;;5037029;28;20488;-81
2022/12/15 13:05:03;;;;;;;49.47;24.58;;;-1.50;99.90;;;;;;5055436;28;20075;-81
2022/12/15 13:07:40;;;;;;;59.75;27.45;;;-1.50;99.90;;;;;;5037850;28;20098;-83
2022/12/15 13:10:14;;;;;;;60.10;28.17;;;-1.50;99.90;;;;;;5039987;28;20032;-82
2022/12/15 13:13:26;;;;;;;63.47;27.50;;;-1.50;99.90;;;;;;5054669;28;20052;-83
2022/12/15 13:16:04;;;;;;;183.15;67.72;;;-1.50;99.90;;;;;;5055676;28;20029;-83
2022/12/15 13:18:56;;;;;;;210.48;80.25;;;-1.40;99.90;;;;;;5055705;28;20025;-83
2022/12/15 13:21:40;;;;;;;73.57;33.00;;;-1.40;99.90;;;;;;5037496;28;20039;-84
2022/12/15 13:24:36;;;;;;;60.17;28.42;;;-1.50;99.90;;;;;;5055668;28;20100;-83
2022/12/15 13:27:07;;;;;;;64.38;23.83;;;-1.50;99.90;;;;;;5037696;28;20021;-83
2022/12/15 13:29:34;;;;;;;61.22;26.70;;;-1.60;99.90;;;;;;5037718;28;20021;-83
2022/12/15 13:32:00;;;;;;;115.57;45.08;;;-1.70;99.90;;;;;;5055367;28;20386;-83
2022/12/15 13:34:28;;;;;;;112.00;44.95;;;-1.70;99.90;;;;;;5036875;28;20041;-82
2022/12/15 13:36:57;;;;;;;117.40;48.55;;;-1.70;99.90;;;;;;5037365;28;20021;-83
2022/12/15 13:39:29;;;;;;;118.57;46.10;;;-1.60;99.90;;;;;;5037290;28;20021;-82
2022/12/15 13:41:54;;;;;;;116.18;48.72;;;-1.60;99.90;;;;;;5037512;28;20487;-83
2022/12/15 13:44:23;;;;;;;101.72;41.58;;;-1.60;99.90;;;;;;5037272;28;20095;-83
2022/12/15 13:46:51;;;;;;;466.08;215.27;;;-1.60;99.90;;;;;;5055540;28;20021;-83
2022/12/15 13:49:24;;;;;;;952.47;464.85;;;-1.60;99.90;;;;;;5036826;28;20473;-81
2022/12/15 13:51:57;;;;;;;351.55;134.70;;;-1.70;99.90;;;;;;5037271;28;20111;-82
2022/12/15 13:54:30;;;;;;;283.73;107.38;;;-1.70;99.90;;;;;;5037075;28;20084;-84
2022/12/15 13:57:09;;;;;;;84.40;43.50;;;-1.80;99.90;;;;;;5037397;28;20021;-82
2022/12/15 13:59:45;;;;;;;61.47;27.42;;;-1.80;99.90;;;;;;5054838;28;20032;-82
2022/12/15 14:02:24;;;;;;;67.65;32.25;;;-1.90;99.90;;;;;;5045599;28;20037;-83
2022/12/15 14:05:19;;;;;;;76.95;36.50;;;-1.90;99.90;;;;;;5036289;28;20053;-83
2022/12/15 14:08:08;;;;;;;168.50;69.78;;;-2.00;99.90;;;;;;5036832;28;20048;-84
2022/12/15 14:10:41;;;;;;;567.10;249.65;;;-2.00;99.90;;;;;;5054629;28;20028;-83
2022/12/15 14:13:17;;;;;;;330.35;129.07;;;-2.00;99.90;;;;;;5037132;28;20029;-81
2022/12/15 14:15:46;;;;;;;442.67;167.77;;;-2.10;99.90;;;;;;5036889;28;20039;-82
2022/12/15 14:18:28;;;;;;;163.88;75.50;;;-2.10;99.90;;;;;;5054549;28;20029;-83
2022/12/15 14:20:54;;;;;;;96.30;46.33;;;-2.10;99.90;;;;;;5054408;28;20500;-82
2022/12/15 14:23:42;;;;;;;230.60;81.85;;;-2.20;99.90;;;;;;5036527;28;20051;-82
2022/12/15 14:26:12;;;;;;;205.95;73.15;;;-2.30;99.90;;;;;;5036481;28;20021;-82
2022/12/15 14:28:44;;;;;;;295.20;99.68;;;-2.20;99.90;;;;;;5054366;28;20024;-82
2022/12/15 14:31:19;;;;;;;139.52;55.05;;;-2.20;99.90;;;;;;5054603;28;20021;-82
2022/12/15 14:33:57;;;;;;;137.65;50.67;;;-2.20;99.90;;;;;;5053507;28;20045;-83
2022/12/15 14:36:23;;;;;;;102.53;42.65;;;-2.20;99.90;;;;;;5036234;28;20433;-82
2022/12/15 14:38:52;;;;;;;121.38;45.58;;;-2.20;99.90;;;;;;5036293;28;20029;-82
2022/12/15 14:41:22;;;;;;;110.93;39.22;;;-2.20;99.90;;;;;;5036198;28;20017;-81
2022/12/15 14:43:50;;;;;;;310.52;83.50;;;-2.20;99.90;;;;;;5035915;28;20045;-81
2022/12/15 14:46:24;;;;;;;123.38;41.28;;;-2.30;99.90;;;;;;5054151;28;20036;-80
2022/12/15 14:49:02;;;;;;;198.35;68.53;;;-2.20;99.90;;;;;;5053915;28;20104;-82
2022/12/15 14:51:30;;;;;;;292.85;107.75;;;-2.30;99.90;;;;;;5036308;28;20024;-82
2022/12/15 14:53:56;;;;;;;296.27;92.85;;;-2.30;99.90;;;;;;5053750;28;20498;-81
2022/12/15 14:56:29;;;;;;;324.63;93.97;;;-2.30;99.90;;;;;;5053805;28;20060;-82
2022/12/15 14:59:14;;;;;;;;;;;-2.30;99.90;;;;;;5044377;28;20032;-81
2022/12/15 15:01:52;;;;;;;131.40;44.70;;;-2.30;99.90;;;;;;5041045;28;19913;-82
2022/12/15 15:04:31;;;;;;;83.18;35.70;;;-2.30;99.90;;;;;;5051815;28;20028;-82
2022/12/15 15:07:06;;;;;;;84.43;38.85;;;-2.20;99.90;;;;;;5035030;28;20025;-82
2022/12/15 15:09:41;;;;;;;119.55;55.80;;;-2.30;99.90;;;;;;5053527;28;20025;-79
2022/12/15 15:12:16;;;;;;;226.48;89.57;;;-2.20;99.90;;;;;;5035310;28;20486;-81
2022/12/15 15:14:56;;;;;;;162.85;68.30;;;-2.30;99.90;;;;;;5034856;28;20033;-82
2022/12/15 15:17:26;;;;;;;174.82;71.70;;;-2.20;99.90;;;;;;5035409;28;20555;-81
2022/12/15 15:20:05;;;;;;;230.40;92.28;;;-2.30;99.90;;;;;;5052731;28;20482;-84
2022/12/15 15:22:34;;;;;;;211.65;88.20;;;-2.30;99.90;;;;;;5023183;28;20025;-84
2022/12/15 15:25:00;;;;;;;191.02;83.20;;;-2.30;99.90;;;;;;5035156;28;20052;-83